createdAt,value
2017-10-08T00:00:39.087Z,12.49
2017-10-08T00:01:39.128Z,12.50
2017-10-08T00:03:32.133Z,12.64
2017-10-08T00:04:32.175Z,12.53
2017-10-08T00:06:25.160Z,12.61
2017-10-08T00:07:25.221Z,12.50
2017-10-08T00:09:18.224Z,12.65
2017-10-08T00:10:18.266Z,12.67
2017-10-08T00:12:11.254Z,12.68
2017-10-08T00:13:11.309Z,12.68
2017-10-08T00:15:04.316Z,12.62
2017-10-08T00:16:04.360Z,12.67
2017-10-08T00:17:57.364Z,12.67
2017-10-08T00:18:57.403Z,12.75
2017-10-08T00:20:50.394Z,12.65
2017-10-08T00:21:50.456Z,12.73
2017-10-08T00:23:43.460Z,12.67
2017-10-08T00:24:43.502Z,12.73
2017-10-08T00:26:36.490Z,12.67
2017-10-08T00:27:36.545Z,12.67
2017-10-08T00:29:29.553Z,12.67
2017-10-08T00:30:29.591Z,12.68
2017-10-08T00:32:22.580Z,12.75
2017-10-08T00:33:22.637Z,12.72
2017-10-08T00:35:15.643Z,12.75
2017-10-08T00:36:15.683Z,12.76
2017-10-08T00:38:08.692Z,12.76
2017-10-08T00:39:08.729Z,12.72
2017-10-08T00:41:01.718Z,12.75
2017-10-08T00:42:01.777Z,12.72
2017-10-08T00:43:54.786Z,12.79
2017-10-08T00:44:54.827Z,12.82
2017-10-08T00:46:48.328Z,12.85
2017-10-08T00:47:48.380Z,12.78
2017-10-08T00:49:41.386Z,12.82
2017-10-08T00:50:41.426Z,12.85
2017-10-08T00:52:34.415Z,12.78
2017-10-08T00:53:34.474Z,12.80
2017-10-08T00:55:27.482Z,12.83
2017-10-08T00:56:27.521Z,12.87
2017-10-08T00:58:20.527Z,12.87
2017-10-08T00:59:20.568Z,12.83
2017-10-08T01:01:13.556Z,12.91
2017-10-08T01:02:13.615Z,12.85
2017-10-08T01:04:06.625Z,12.91
2017-10-08T01:05:06.664Z,12.78
2017-10-08T01:06:59.657Z,12.82
2017-10-08T01:07:59.715Z,12.93
2017-10-08T01:09:52.758Z,12.94
2017-10-08T01:10:52.760Z,12.94
2017-10-08T01:12:45.748Z,12.97
2017-10-08T01:13:45.808Z,13.00
2017-10-08T01:15:38.815Z,12.98
2017-10-08T01:16:38.855Z,13.00
2017-10-08T01:18:31.862Z,12.95
2017-10-08T01:19:31.902Z,12.97
2017-10-08T01:21:24.892Z,13.00
2017-10-08T01:22:24.948Z,12.97
2017-10-08T01:24:17.953Z,12.97
2017-10-08T01:25:17.994Z,12.93
2017-10-08T01:27:10.982Z,13.00
2017-10-08T01:28:11.042Z,13.03
2017-10-08T01:30:04.054Z,12.93
2017-10-08T01:31:04.094Z,12.95
2017-10-08T01:32:57.082Z,13.03
2017-10-08T01:33:57.143Z,13.04
2017-10-08T01:35:50.152Z,12.97
2017-10-08T01:36:50.187Z,13.04
2017-10-08T01:38:43.195Z,12.91
2017-10-08T01:39:43.233Z,12.86
2017-10-08T01:41:36.222Z,13.03
2017-10-08T01:42:36.281Z,13.04
2017-10-08T01:44:29.289Z,13.03
2017-10-08T01:45:29.331Z,12.95
2017-10-08T01:47:22.835Z,13.00
2017-10-08T01:48:22.887Z,13.01
2017-10-08T01:50:15.892Z,13.00
2017-10-08T01:51:15.935Z,13.03
2017-10-08T01:53:08.923Z,12.95
2017-10-08T01:54:08.980Z,12.94
2017-10-08T01:56:01.983Z,12.97
2017-10-08T01:57:02.025Z,12.93
2017-10-08T01:58:55.033Z,12.95
2017-10-08T01:59:55.074Z,12.97
2017-10-08T02:01:48.058Z,12.91
2017-10-08T02:02:48.121Z,13.01
2017-10-08T02:04:41.131Z,13.04
2017-10-08T02:05:41.172Z,12.98
2017-10-08T02:07:34.161Z,12.91
2017-10-08T02:08:34.217Z,12.93
2017-10-08T02:10:27.225Z,13.05
2017-10-08T02:11:27.264Z,13.04
2017-10-08T02:13:20.253Z,13.01
2017-10-08T02:14:20.312Z,13.00
2017-10-08T02:16:13.318Z,13.00
2017-10-08T02:17:13.356Z,13.05
2017-10-08T02:19:06.364Z,13.03
2017-10-08T02:20:06.404Z,13.08
2017-10-08T02:21:59.393Z,13.04
2017-10-08T02:22:59.452Z,13.04
2017-10-08T02:24:52.458Z,13.04
2017-10-08T02:25:52.499Z,13.05
2017-10-08T02:27:45.483Z,13.08
2017-10-08T02:28:45.542Z,12.95
2017-10-08T02:30:38.550Z,13.04
2017-10-08T02:31:38.593Z,12.98
2017-10-08T02:33:31.580Z,13.08
2017-10-08T02:34:31.639Z,13.01
2017-10-08T02:36:24.653Z,13.00
2017-10-08T02:37:24.697Z,13.00
2017-10-08T02:39:17.702Z,12.95
2017-10-08T02:40:17.754Z,12.95
2017-10-08T02:42:10.738Z,13.00
2017-10-08T02:43:10.800Z,12.94
2017-10-08T02:45:03.811Z,12.94
2017-10-08T02:46:03.852Z,12.95
2017-10-08T02:47:56.841Z,12.91
2017-10-08T02:48:56.900Z,12.97
2017-10-08T02:50:49.903Z,12.93
2017-10-08T02:51:49.945Z,12.93
2017-10-08T02:53:42.935Z,12.75
2017-10-08T02:54:42.992Z,12.86
2017-10-08T02:56:35.998Z,12.87
2017-10-08T02:57:36.039Z,12.85
2017-10-08T02:59:29.045Z,12.85
2017-10-08T03:00:29.085Z,12.87
2017-10-08T03:02:22.074Z,12.85
2017-10-08T03:03:22.131Z,12.82
2017-10-08T03:05:15.141Z,12.85
2017-10-08T03:06:15.176Z,12.76
2017-10-08T03:08:08.165Z,12.76
2017-10-08T03:09:08.224Z,12.73
2017-10-08T03:11:01.232Z,12.72
2017-10-08T03:12:01.272Z,12.76
2017-10-08T03:13:54.261Z,12.76
2017-10-08T03:14:54.318Z,12.79
2017-10-08T03:16:47.324Z,12.83
2017-10-08T03:17:47.364Z,12.86
2017-10-08T03:19:40.372Z,12.86
2017-10-08T03:20:40.414Z,12.93
2017-10-08T03:22:33.396Z,12.85
2017-10-08T03:23:33.456Z,12.82
2017-10-08T03:25:26.461Z,12.86
2017-10-08T03:26:26.500Z,12.91
2017-10-08T03:28:19.489Z,12.87
2017-10-08T03:29:19.558Z,12.85
2017-10-08T03:31:12.555Z,12.82
2017-10-08T03:32:12.592Z,12.79
2017-10-08T03:34:05.582Z,12.90
2017-10-08T03:35:05.639Z,12.82
2017-10-08T03:36:58.644Z,12.82
2017-10-08T03:37:58.685Z,12.82
2017-10-08T03:39:51.695Z,12.85
2017-10-08T03:40:51.734Z,12.83
2017-10-08T03:42:44.724Z,12.90
2017-10-08T03:43:44.785Z,12.78
2017-10-08T03:45:37.788Z,12.82
2017-10-08T03:46:37.831Z,12.75
2017-10-08T03:48:30.819Z,12.73
2017-10-08T03:49:30.901Z,12.68
2017-10-08T03:51:23.884Z,12.75
2017-10-08T03:52:23.924Z,12.76
2017-10-08T03:54:16.909Z,12.73
2017-10-08T03:55:16.969Z,12.70
2017-10-08T03:57:09.975Z,12.73
2017-10-08T03:58:10.017Z,12.85
2017-10-08T04:00:03.023Z,12.82
2017-10-08T04:01:03.063Z,12.83
2017-10-08T04:02:56.056Z,12.85
2017-10-08T04:03:56.117Z,12.86
2017-10-08T04:05:49.122Z,12.90
2017-10-08T04:06:49.164Z,12.83
2017-10-08T04:08:42.151Z,12.82
2017-10-08T04:09:42.208Z,12.86
2017-10-08T04:11:35.215Z,12.85
2017-10-08T04:12:35.255Z,12.90
2017-10-08T04:14:28.245Z,12.86
2017-10-08T04:15:28.301Z,12.83
2017-10-08T04:17:21.309Z,12.86
2017-10-08T04:18:21.350Z,12.79
2017-10-08T04:20:14.355Z,12.76
2017-10-08T04:21:14.396Z,12.75
2017-10-08T04:23:07.381Z,12.73
2017-10-08T04:24:07.442Z,12.67
2017-10-08T04:26:00.446Z,12.67
2017-10-08T04:27:00.487Z,12.73
2017-10-08T04:28:53.480Z,12.61
2017-10-08T04:29:53.536Z,12.64
2017-10-08T04:31:46.543Z,12.62
2017-10-08T04:32:46.582Z,12.55
2017-10-08T04:34:39.571Z,12.53
2017-10-08T04:35:39.633Z,12.53
2017-10-08T04:37:32.635Z,12.47
2017-10-08T04:38:32.675Z,12.42
2017-10-08T04:40:25.683Z,12.40
2017-10-08T04:41:25.724Z,12.31
2017-10-08T04:43:18.712Z,12.37
2017-10-08T04:44:18.773Z,12.24
2017-10-08T04:46:11.775Z,12.28
2017-10-08T04:47:11.818Z,12.29
2017-10-08T04:49:04.806Z,12.21
2017-10-08T04:50:04.862Z,12.25
2017-10-08T04:51:58.383Z,12.27
2017-10-08T04:52:58.415Z,12.20
2017-10-08T04:54:51.404Z,12.27
2017-10-08T04:55:51.461Z,12.31
2017-10-08T04:57:44.465Z,12.36
2017-10-08T04:58:44.505Z,12.42
2017-10-08T05:00:37.510Z,12.40
2017-10-08T05:01:37.552Z,12.36
2017-10-08T05:03:30.541Z,12.55
2017-10-08T05:04:30.601Z,12.39
2017-10-08T05:06:23.610Z,12.53
2017-10-08T05:07:23.646Z,12.54
2017-10-08T05:09:16.637Z,12.54
2017-10-08T05:10:16.690Z,12.53
2017-10-08T05:12:09.697Z,12.47
2017-10-08T05:13:09.737Z,12.53
2017-10-08T05:15:02.724Z,12.55
2017-10-08T05:16:02.780Z,12.65
2017-10-08T05:17:55.787Z,12.62
2017-10-08T05:18:55.826Z,12.70
2017-10-08T05:20:48.839Z,12.73
2017-10-08T05:21:48.879Z,12.65
2017-10-08T05:23:41.868Z,12.65
2017-10-08T05:24:41.932Z,12.67
2017-10-08T05:26:34.936Z,12.61
2017-10-08T05:27:34.977Z,12.73
2017-10-08T05:29:27.960Z,12.62
2017-10-08T05:30:28.023Z,12.68
2017-10-08T05:32:21.028Z,12.64
2017-10-08T05:33:21.068Z,12.65
2017-10-08T05:35:14.083Z,12.62
2017-10-08T05:36:14.123Z,12.64
2017-10-08T05:38:07.130Z,12.68
2017-10-08T05:39:07.168Z,12.72
2017-10-08T05:41:00.172Z,12.75
2017-10-08T05:42:00.214Z,12.75
2017-10-08T05:43:53.202Z,12.82
2017-10-08T05:44:53.260Z,12.83
2017-10-08T05:46:46.263Z,12.86
2017-10-08T05:47:46.306Z,12.85
2017-10-08T05:49:39.291Z,12.87
2017-10-08T05:50:39.352Z,12.87
2017-10-08T05:52:32.865Z,12.85
2017-10-08T05:53:32.906Z,12.87
2017-10-08T05:55:25.893Z,12.90
2017-10-08T05:56:25.954Z,12.86
2017-10-08T05:58:18.964Z,12.87
2017-10-08T05:59:19.006Z,12.87
2017-10-08T06:01:12.032Z,12.86
2017-10-08T06:02:12.061Z,12.86
2017-10-08T06:04:05.050Z,12.87
2017-10-08T06:05:05.106Z,12.85
2017-10-08T06:06:58.120Z,12.90
2017-10-08T06:07:58.161Z,12.87
2017-10-08T06:09:51.147Z,12.91
2017-10-08T06:10:51.208Z,12.95
2017-10-08T06:12:44.212Z,12.90
2017-10-08T06:13:44.253Z,12.94
2017-10-08T06:15:37.242Z,12.93
2017-10-08T06:16:37.298Z,12.95
2017-10-08T06:18:30.303Z,12.95
2017-10-08T06:19:30.344Z,12.97
2017-10-08T06:21:23.348Z,12.98
2017-10-08T06:22:23.390Z,12.97
2017-10-08T06:24:16.381Z,12.94
2017-10-08T06:25:16.445Z,12.95
2017-10-08T06:27:09.450Z,12.85
2017-10-08T06:28:09.494Z,12.98
2017-10-08T06:30:02.481Z,12.95
2017-10-08T06:31:02.543Z,13.03
2017-10-08T06:32:55.548Z,12.97
2017-10-08T06:33:55.589Z,13.01
2017-10-08T06:35:48.598Z,13.04
2017-10-08T06:36:48.638Z,13.08
2017-10-08T06:38:42.151Z,13.05
2017-10-08T06:39:42.193Z,13.25
2017-10-08T06:41:35.210Z,13.28
2017-10-08T06:42:35.240Z,13.27
2017-10-08T06:44:28.230Z,13.30
2017-10-08T06:45:28.286Z,13.31
2017-10-08T06:47:21.292Z,13.33
2017-10-08T06:48:21.333Z,13.39
2017-10-08T06:50:14.322Z,13.46
2017-10-08T06:51:14.380Z,13.41
2017-10-08T06:53:07.394Z,13.39
2017-10-08T06:54:07.430Z,13.46
2017-10-08T06:56:00.443Z,13.38
2017-10-08T06:57:00.493Z,13.39
2017-10-08T06:58:53.475Z,13.35
2017-10-08T06:59:53.537Z,13.39
2017-10-08T07:01:46.540Z,13.25
2017-10-08T07:02:46.581Z,13.27
2017-10-08T07:04:39.566Z,13.28
2017-10-08T07:05:39.631Z,13.30
2017-10-08T07:07:32.638Z,13.23
2017-10-08T07:08:32.682Z,13.30
2017-10-08T07:10:25.880Z,13.28
2017-10-08T07:11:25.941Z,13.22
2017-10-08T07:13:18.958Z,13.19
2017-10-08T07:14:19.001Z,13.18
2017-10-08T07:16:27.048Z,13.19
2017-10-08T07:17:23.997Z,13.12
2017-10-08T07:19:16.985Z,13.08
2017-10-08T07:20:17.047Z,13.08
2017-10-08T07:22:10.140Z,13.15
2017-10-08T07:23:10.099Z,13.12
2017-10-08T07:25:03.089Z,13.05
2017-10-08T07:26:03.145Z,13.09
2017-10-08T07:27:56.157Z,13.09
2017-10-08T07:28:56.201Z,13.05
2017-10-08T07:30:49.188Z,13.23
2017-10-08T07:31:49.246Z,13.19
2017-10-08T07:33:42.251Z,13.18
2017-10-08T07:34:42.294Z,13.28
2017-10-08T07:36:35.301Z,13.50
2017-10-08T07:37:35.339Z,13.67
2017-10-08T07:39:28.329Z,13.96
2017-10-08T07:40:28.388Z,14.15
2017-10-08T07:42:21.397Z,17.20
2017-10-08T07:43:21.439Z,16.60
2017-10-08T07:45:14.428Z,15.68
2017-10-08T07:46:14.490Z,15.46
2017-10-08T07:48:07.497Z,15.24
2017-10-08T07:49:07.541Z,15.27
2017-10-08T07:51:00.530Z,15.91
2017-10-08T07:52:00.591Z,15.97
2017-10-08T07:53:53.598Z,15.75
2017-10-08T07:54:53.640Z,15.79
2017-10-08T07:56:46.650Z,15.68
2017-10-08T07:57:46.692Z,15.62
2017-10-08T07:59:39.685Z,15.65
2017-10-08T08:00:39.744Z,15.77
2017-10-08T08:02:32.753Z,15.76
2017-10-08T08:03:32.796Z,15.67
2017-10-08T08:05:25.788Z,15.62
2017-10-08T08:06:25.849Z,15.57
2017-10-08T08:08:18.866Z,15.39
2017-10-08T08:09:18.909Z,15.33
2017-10-08T08:11:11.900Z,15.03
2017-10-08T08:12:11.961Z,14.99
2017-10-08T08:14:04.969Z,14.81
2017-10-08T08:15:05.016Z,14.89
2017-10-08T08:16:58.528Z,14.94
2017-10-08T08:17:58.571Z,15.07
2017-10-08T08:19:51.564Z,15.03
2017-10-08T08:20:51.627Z,14.96
2017-10-08T08:22:44.633Z,15.09
2017-10-08T08:23:44.676Z,15.02
2017-10-08T08:25:37.674Z,14.91
2017-10-08T08:26:37.730Z,15.10
2017-10-08T08:28:30.739Z,14.99
2017-10-08T08:29:30.781Z,14.94
2017-10-08T08:31:23.776Z,15.00
2017-10-08T08:32:23.838Z,14.92
2017-10-08T08:34:16.849Z,15.04
2017-10-08T08:35:16.892Z,15.04
2017-10-08T08:37:09.906Z,15.10
2017-10-08T08:38:09.948Z,15.11
2017-10-08T08:40:02.946Z,15.03
2017-10-08T08:41:03.012Z,15.15
2017-10-08T08:42:56.022Z,15.10
2017-10-08T08:43:56.064Z,15.11
2017-10-08T08:45:49.068Z,15.07
2017-10-08T08:46:49.132Z,15.10
2017-10-08T08:48:42.146Z,14.94
2017-10-08T08:49:42.192Z,14.84
2017-10-08T08:51:35.195Z,14.73
2017-10-08T08:52:35.258Z,14.59
2017-10-08T08:54:28.285Z,14.60
2017-10-08T08:55:28.328Z,14.55
2017-10-08T08:57:21.357Z,14.63
2017-10-08T08:58:21.424Z,14.63
2017-10-08T09:00:14.389Z,14.77
2017-10-08T09:01:14.450Z,14.73
2017-10-08T09:03:07.466Z,14.92
2017-10-08T09:04:07.508Z,15.00
2017-10-08T09:06:00.499Z,15.07
2017-10-08T09:07:00.596Z,15.17
2017-10-08T09:08:53.586Z,15.15
2017-10-08T09:09:53.633Z,15.10
2017-10-08T09:11:46.649Z,15.17
2017-10-08T09:12:46.688Z,15.29
2017-10-08T09:14:39.701Z,15.33
2017-10-08T09:15:39.744Z,15.35
2017-10-08T09:17:32.768Z,15.52
2017-10-08T09:18:32.812Z,15.70
2017-10-08T09:20:25.802Z,15.62
2017-10-08T09:21:25.864Z,15.70
2017-10-08T09:23:18.884Z,15.83
2017-10-08T09:24:18.915Z,15.82
2017-10-08T09:26:11.907Z,15.84
2017-10-08T09:27:11.981Z,15.75
2017-10-08T09:29:04.993Z,15.92
2017-10-08T09:30:05.031Z,16.08
2017-10-08T09:31:58.033Z,16.32
2017-10-08T09:32:58.096Z,16.16
2017-10-08T09:34:51.111Z,16.21
2017-10-08T09:35:51.155Z,16.20
2017-10-08T09:37:44.174Z,16.33
2017-10-08T09:38:44.219Z,16.24
2017-10-08T09:40:37.214Z,16.17
2017-10-08T09:41:37.274Z,16.15
2017-10-08T09:43:30.372Z,15.88
2017-10-08T09:44:30.380Z,15.68
2017-10-08T09:46:23.375Z,15.52
2017-10-08T09:47:23.445Z,15.43
2017-10-08T09:49:16.479Z,15.17
2017-10-08T09:50:16.543Z,15.15
2017-10-08T09:52:09.562Z,15.04
2017-10-08T09:53:09.608Z,15.04
2017-10-08T09:55:02.642Z,15.07
2017-10-08T09:56:02.685Z,15.04
2017-10-08T09:57:55.696Z,15.00
2017-10-08T09:58:55.757Z,14.92
2017-10-08T10:00:48.742Z,14.91
2017-10-08T10:01:48.827Z,14.77
2017-10-08T10:03:41.824Z,14.69
2017-10-08T10:04:41.869Z,14.77
2017-10-08T10:06:34.863Z,14.79
2017-10-08T10:07:34.948Z,14.77
2017-10-08T10:09:28.007Z,14.91
2017-10-08T10:10:28.024Z,14.86
2017-10-08T10:12:21.000Z,15.02
2017-10-08T10:13:21.041Z,15.03
2017-10-08T10:15:14.058Z,15.09
2017-10-08T10:16:14.104Z,15.14
2017-10-08T10:18:07.145Z,15.18
2017-10-08T10:19:07.165Z,15.25
2017-10-08T10:21:00.157Z,15.22
2017-10-08T10:22:00.218Z,15.29
2017-10-08T10:23:53.231Z,15.11
2017-10-08T10:24:53.274Z,15.10
2017-10-08T10:26:46.286Z,15.04
2017-10-08T10:27:46.346Z,15.14
2017-10-08T10:29:39.357Z,15.28
2017-10-08T10:30:39.400Z,15.11
2017-10-08T10:32:32.394Z,15.31
2017-10-08T10:33:32.462Z,15.39
2017-10-08T10:35:25.469Z,15.27
2017-10-08T10:36:25.510Z,15.27
2017-10-08T10:38:18.518Z,15.35
2017-10-08T10:39:18.563Z,15.37
2017-10-08T10:41:11.579Z,15.54
2017-10-08T10:42:11.616Z,15.70
2017-10-08T10:44:04.628Z,15.82
2017-10-08T10:45:04.672Z,15.97
2017-10-08T10:46:57.659Z,15.90
2017-10-08T10:47:57.723Z,16.04
2017-10-08T10:49:50.736Z,15.92
2017-10-08T10:50:50.776Z,15.91
2017-10-08T10:52:43.769Z,16.05
2017-10-08T10:53:43.829Z,16.02
2017-10-08T10:55:36.841Z,16.13
2017-10-08T10:56:36.906Z,16.12
2017-10-08T10:58:29.897Z,16.16
2017-10-08T10:59:29.940Z,15.94
2017-10-08T11:01:22.931Z,15.92
2017-10-08T11:02:22.991Z,15.94
2017-10-08T11:04:16.004Z,15.86
2017-10-08T11:05:16.044Z,15.94
2017-10-08T11:07:09.035Z,15.92
2017-10-08T11:08:09.097Z,15.92
2017-10-08T11:10:02.109Z,15.91
2017-10-08T11:11:02.156Z,15.90
2017-10-08T11:12:55.140Z,15.84
2017-10-08T11:13:55.203Z,15.91
2017-10-08T11:15:48.210Z,15.91
2017-10-08T11:16:48.251Z,15.92
2017-10-08T11:18:41.264Z,16.05
2017-10-08T11:19:41.305Z,16.17
2017-10-08T11:21:34.294Z,16.05
2017-10-08T11:22:34.358Z,16.17
2017-10-08T11:24:27.371Z,16.17
2017-10-08T11:25:27.410Z,16.23
2017-10-08T11:27:20.400Z,16.21
2017-10-08T11:28:20.511Z,16.28
2017-10-08T11:30:13.481Z,16.35
2017-10-08T11:31:13.539Z,16.43
2017-10-08T11:33:06.511Z,16.31
2017-10-08T11:34:06.574Z,16.33
2017-10-08T11:35:59.591Z,16.15
2017-10-08T11:36:59.634Z,16.04
2017-10-08T11:38:52.650Z,15.92
2017-10-08T11:39:52.694Z,15.65
2017-10-08T11:41:45.689Z,15.51
2017-10-08T11:42:45.753Z,15.44
2017-10-08T11:44:38.763Z,15.44
2017-10-08T11:45:38.806Z,15.40
2017-10-08T11:47:31.797Z,15.49
2017-10-08T11:48:31.860Z,15.31
2017-10-08T11:50:25.071Z,15.29
2017-10-08T11:51:24.920Z,15.22
2017-10-08T11:53:17.915Z,15.14
2017-10-08T11:54:17.978Z,15.22
2017-10-08T11:56:10.989Z,15.06
2017-10-08T11:57:11.046Z,15.04
2017-10-08T11:59:04.042Z,15.10
2017-10-08T12:00:04.102Z,15.10
2017-10-08T12:01:57.086Z,15.10
2017-10-08T12:02:57.148Z,15.09
2017-10-08T12:04:50.165Z,15.25
2017-10-08T12:05:50.207Z,15.28
2017-10-08T12:07:43.208Z,15.49
2017-10-08T12:08:43.268Z,15.43
2017-10-08T12:10:36.277Z,15.58
2017-10-08T12:11:36.319Z,15.68
2017-10-08T12:13:29.307Z,15.76
2017-10-08T12:14:29.371Z,15.94
2017-10-08T12:16:22.380Z,16.28
2017-10-08T12:17:22.422Z,16.43
2017-10-08T12:19:15.432Z,16.81
2017-10-08T12:20:15.475Z,16.90
2017-10-08T12:22:08.473Z,16.81
2017-10-08T12:23:08.537Z,16.69
2017-10-08T12:25:01.554Z,16.83
2017-10-08T12:26:01.590Z,16.86
2017-10-08T12:27:54.582Z,16.76
2017-10-08T12:28:54.646Z,16.91
2017-10-08T12:30:47.666Z,16.76
2017-10-08T12:31:47.704Z,16.76
2017-10-08T12:33:40.695Z,16.46
2017-10-08T12:34:40.760Z,16.33
2017-10-08T12:36:33.775Z,16.10
2017-10-08T12:37:33.819Z,16.01
2017-10-08T12:39:26.831Z,15.91
2017-10-08T12:40:26.875Z,15.90
2017-10-08T12:42:19.867Z,15.80
2017-10-08T12:43:19.926Z,15.76
2017-10-08T12:45:12.938Z,15.77
2017-10-08T12:46:12.983Z,15.68
2017-10-08T12:48:05.975Z,15.72
2017-10-08T12:49:06.042Z,15.73
2017-10-08T12:50:59.044Z,15.65
2017-10-08T12:51:59.086Z,15.70
2017-10-08T12:53:52.078Z,15.73
2017-10-08T12:54:52.139Z,15.64
2017-10-08T12:56:45.381Z,15.72
2017-10-08T12:57:45.209Z,15.77
2017-10-08T12:59:38.212Z,15.86
2017-10-08T13:00:38.262Z,15.95
2017-10-08T13:02:31.304Z,15.97
2017-10-08T13:03:31.309Z,16.12
2017-10-08T13:05:24.338Z,16.02
2017-10-08T13:06:24.369Z,16.05
2017-10-08T13:08:17.361Z,15.88
2017-10-08T13:09:17.430Z,15.90
2017-10-08T13:11:10.436Z,15.80
2017-10-08T13:12:10.481Z,15.90
2017-10-08T13:14:03.474Z,15.94
2017-10-08T13:15:03.662Z,15.95
2017-10-08T13:16:56.550Z,16.17
2017-10-08T13:17:56.593Z,16.12
2017-10-08T13:19:49.608Z,16.33
2017-10-08T13:20:49.649Z,16.20
2017-10-08T13:22:42.644Z,16.35
2017-10-08T13:23:42.708Z,16.42
2017-10-08T13:25:35.720Z,16.33
2017-10-08T13:26:35.769Z,16.26
2017-10-08T13:28:28.752Z,16.33
2017-10-08T13:29:28.815Z,16.17
2017-10-08T13:31:21.823Z,16.13
2017-10-08T13:32:21.867Z,16.15
2017-10-08T13:34:14.857Z,16.31
2017-10-08T13:35:14.918Z,16.23
2017-10-08T13:37:07.926Z,16.24
2017-10-08T13:38:08.097Z,16.23
2017-10-08T13:40:00.980Z,16.28
2017-10-08T13:41:01.022Z,16.29
2017-10-08T13:42:54.040Z,16.31
2017-10-08T13:43:54.076Z,16.24
2017-10-08T13:45:47.112Z,16.32
2017-10-08T13:46:47.127Z,16.31
2017-10-08T13:48:40.290Z,16.28
2017-10-08T13:49:40.181Z,16.26
2017-10-08T13:51:33.190Z,16.09
2017-10-08T13:52:33.235Z,16.12
2017-10-08T13:54:26.225Z,16.17
2017-10-08T13:55:26.288Z,16.41
2017-10-08T13:57:19.304Z,17.16
2017-10-08T13:58:19.346Z,17.74
2017-10-08T14:00:12.359Z,18.31
2017-10-08T14:01:12.400Z,18.80
2017-10-08T14:03:05.394Z,19.00
2017-10-08T14:04:05.456Z,18.78
2017-10-08T14:05:58.468Z,18.92
2017-10-08T14:06:58.510Z,18.88
2017-10-08T14:08:51.503Z,19.09
2017-10-08T14:09:51.566Z,18.90
2017-10-08T14:11:44.581Z,18.83
2017-10-08T14:12:44.624Z,18.45
2017-10-08T14:14:37.618Z,18.31
2017-10-08T14:15:37.683Z,18.01
2017-10-08T14:17:30.697Z,17.54
2017-10-08T14:18:30.741Z,17.38
2017-10-08T14:20:23.754Z,17.04
2017-10-08T14:21:23.799Z,16.90
2017-10-08T14:23:17.299Z,16.64
2017-10-08T14:24:17.366Z,16.54
2017-10-08T14:26:10.379Z,16.20
2017-10-08T14:27:10.425Z,16.31
2017-10-08T14:29:03.422Z,16.13
2017-10-08T14:30:03.487Z,16.23
2017-10-08T14:31:56.498Z,16.17
2017-10-08T14:32:56.542Z,16.24
2017-10-08T14:34:49.535Z,16.24
2017-10-08T14:35:49.597Z,16.28
2017-10-08T14:37:42.611Z,16.21
2017-10-08T14:38:42.657Z,16.12
2017-10-08T14:40:35.670Z,16.15
2017-10-08T14:41:35.713Z,16.09
2017-10-08T14:43:28.710Z,16.04
2017-10-08T14:44:28.769Z,15.92
2017-10-08T14:46:21.784Z,15.90
2017-10-08T14:47:21.823Z,15.90
2017-10-08T14:49:14.824Z,15.65
2017-10-08T14:50:14.884Z,15.68
2017-10-08T14:52:07.896Z,15.70
2017-10-08T14:53:07.944Z,15.64
2017-10-08T14:55:00.933Z,15.57
2017-10-08T14:56:00.999Z,15.47
2017-10-08T14:57:54.009Z,15.46
2017-10-08T14:58:54.053Z,15.46
2017-10-08T15:00:47.063Z,15.36
2017-10-08T15:01:47.110Z,15.37
2017-10-08T15:03:40.099Z,15.29
2017-10-08T15:04:40.166Z,15.36
2017-10-08T15:06:33.177Z,15.27
2017-10-08T15:07:33.222Z,15.28
2017-10-08T15:09:26.216Z,15.28
2017-10-08T15:10:26.280Z,15.10
2017-10-08T15:12:19.288Z,15.18
2017-10-08T15:13:19.332Z,15.17
2017-10-08T15:15:12.330Z,15.11
2017-10-08T15:16:12.389Z,15.10
2017-10-08T15:18:05.409Z,15.10
2017-10-08T15:19:05.449Z,15.10
2017-10-08T15:20:58.468Z,15.09
2017-10-08T15:21:58.506Z,15.04
2017-10-08T15:23:52.005Z,14.97
2017-10-08T15:24:52.065Z,14.92
2017-10-08T15:26:45.087Z,15.00
2017-10-08T15:27:45.130Z,14.96
2017-10-08T15:29:38.165Z,14.97
2017-10-08T15:30:38.189Z,14.92
2017-10-08T15:32:31.209Z,15.00
2017-10-08T15:33:31.246Z,14.89
2017-10-08T15:35:24.238Z,14.96
2017-10-08T15:36:24.296Z,15.00
2017-10-08T15:38:17.309Z,15.03
2017-10-08T15:39:17.351Z,14.97
2017-10-08T15:41:10.391Z,15.02
2017-10-08T15:42:10.402Z,15.00
2017-10-08T15:44:03.407Z,14.99
2017-10-08T15:45:03.457Z,15.04
2017-10-08T15:46:56.477Z,14.96
2017-10-08T15:47:56.506Z,15.02
2017-10-08T15:49:49.500Z,14.94
2017-10-08T15:50:49.675Z,14.99
2017-10-08T15:52:42.576Z,14.89
2017-10-08T15:53:42.619Z,14.96
2017-10-08T15:55:35.614Z,14.86
2017-10-08T15:56:35.677Z,14.82
2017-10-08T15:58:28.689Z,14.72
2017-10-08T15:59:28.735Z,14.73
2017-10-08T16:01:21.742Z,14.73
2017-10-08T16:02:21.782Z,14.73
2017-10-08T16:04:14.770Z,14.62
2017-10-08T16:05:14.858Z,14.60
2017-10-08T16:07:08.343Z,14.65
2017-10-08T16:08:08.389Z,14.62
2017-10-08T16:10:01.378Z,14.66
2017-10-08T16:11:01.436Z,14.66
2017-10-08T16:12:54.443Z,14.55
2017-10-08T16:13:54.487Z,14.58
2017-10-08T16:15:47.486Z,14.45
2017-10-08T16:16:47.546Z,14.50
2017-10-08T16:18:40.556Z,14.40
2017-10-08T16:19:40.626Z,14.37
2017-10-08T16:21:33.623Z,14.30
2017-10-08T16:22:33.651Z,14.29
2017-10-08T16:24:26.641Z,14.17
2017-10-08T16:25:26.704Z,14.18
2017-10-08T16:27:19.707Z,14.05
2017-10-08T16:28:19.751Z,14.03
2017-10-08T16:30:12.743Z,13.97
2017-10-08T16:31:12.804Z,13.99
2017-10-08T16:33:05.826Z,13.87
2017-10-08T16:34:05.853Z,13.87
2017-10-08T16:35:58.844Z,13.74
2017-10-08T16:36:58.907Z,13.71
2017-10-08T16:38:51.926Z,13.60
2017-10-08T16:39:51.961Z,13.57
2017-10-08T16:41:45.000Z,13.52
2017-10-08T16:42:45.014Z,13.42
2017-10-08T16:44:37.998Z,13.47
2017-10-08T16:45:38.075Z,13.46
2017-10-08T16:47:31.105Z,13.39
2017-10-08T16:48:31.112Z,13.33
2017-10-08T16:50:24.103Z,13.20
2017-10-08T16:51:24.164Z,13.15
2017-10-08T16:53:17.169Z,13.04
2017-10-08T16:54:17.211Z,13.01
2017-10-08T16:56:10.235Z,13.04
2017-10-08T16:57:10.274Z,13.01
2017-10-08T16:59:03.249Z,12.93
2017-10-08T17:00:03.354Z,12.85
2017-10-08T17:01:56.318Z,12.82
2017-10-08T17:02:56.358Z,12.79
2017-10-08T17:04:49.348Z,12.75
2017-10-08T17:05:49.409Z,12.73
2017-10-08T17:07:42.419Z,12.60
2017-10-08T17:08:42.460Z,12.49
2017-10-08T17:10:35.445Z,12.61
2017-10-08T17:11:35.509Z,12.50
2017-10-08T17:13:28.521Z,12.55
2017-10-08T17:14:28.555Z,12.54
2017-10-08T17:16:21.561Z,12.43
2017-10-08T17:17:21.603Z,12.55
2017-10-08T17:19:14.593Z,12.42
2017-10-08T17:20:14.651Z,12.37
2017-10-08T17:22:07.659Z,12.40
2017-10-08T17:23:07.700Z,12.36
2017-10-08T17:25:00.690Z,12.22
2017-10-08T17:26:00.750Z,12.21
2017-10-08T17:27:53.759Z,12.09
2017-10-08T17:28:53.799Z,12.12
2017-10-08T17:30:46.791Z,12.09
2017-10-08T17:31:46.853Z,12.18
2017-10-08T17:33:39.863Z,12.18
2017-10-08T17:34:39.911Z,12.09
2017-10-08T17:36:32.923Z,12.22
2017-10-08T17:37:32.953Z,12.10
2017-10-08T17:39:27.451Z,12.04
2017-10-08T17:40:27.509Z,12.02
2017-10-08T17:42:20.519Z,11.94
2017-10-08T17:43:20.568Z,11.83
2017-10-08T17:45:13.560Z,11.77
2017-10-08T17:46:13.611Z,11.75
2017-10-08T17:48:06.617Z,11.80
2017-10-08T17:49:06.658Z,11.77
2017-10-08T17:50:59.647Z,11.90
2017-10-08T17:51:59.703Z,11.91
2017-10-08T17:53:52.710Z,12.00
2017-10-08T17:54:52.751Z,11.90
2017-10-08T17:56:45.777Z,11.95
2017-10-08T17:57:45.826Z,12.00
2017-10-08T17:59:38.782Z,12.02
2017-10-08T18:00:38.845Z,11.95
2017-10-08T18:02:31.850Z,11.95
2017-10-08T18:03:32.052Z,11.94
2017-10-08T18:05:24.880Z,12.03
2017-10-08T18:06:24.934Z,12.02
2017-10-08T18:08:17.941Z,12.03
2017-10-08T18:09:17.981Z,11.90
2017-10-08T18:11:10.979Z,11.77
2017-10-08T18:12:11.036Z,11.72
2017-10-08T18:14:04.045Z,11.57
2017-10-08T18:15:04.088Z,11.50
2017-10-08T18:16:57.109Z,11.45
2017-10-08T18:17:57.135Z,11.48
2017-10-08T18:19:50.129Z,11.51
2017-10-08T18:20:50.190Z,11.54
2017-10-08T18:22:43.200Z,11.57
2017-10-08T18:23:43.240Z,11.50
2017-10-08T18:25:36.234Z,11.59
2017-10-08T18:26:36.303Z,11.57
2017-10-08T18:28:29.300Z,11.52
2017-10-08T18:29:29.340Z,11.43
2017-10-08T18:31:22.334Z,11.37
2017-10-08T18:32:22.395Z,11.32
2017-10-08T18:34:15.403Z,11.26